sensor_id;sensor_type;location;lat;lon;timestamp;P1;durP1;ratioP1;P2;durP2;ratioP2
15130;SDS011;7666;50.920;4.628;2022-10-18T00:00:24;7.60;;;5.37;;
15130;SDS011;7666;50.920;4.628;2022-10-18T00:03:10;7.40;;;5.70;;
15130;SDS011;7666;50.920;4.628;2022-10-18T00:05:55;6.10;;;5.00;;
15130;SDS011;7666;50.920;4.628;2022-10-18T00:08:42;9.83;;;5.60;;
15130;SDS011;7666;50.920;4.628;2022-10-18T00:11:28;7.87;;;5.00;;
15130;SDS011;7666;50.920;4.628;2022-10-18T00:14:14;9.33;;;5.93;;
15130;SDS011;7666;50.920;4.628;2022-10-18T00:17:00;11.97;;;6.03;;
15130;SDS011;7666;50.920;4.628;2022-10-18T00:19:46;8.93;;;5.50;;
15130;SDS011;7666;50.920;4.628;2022-10-18T00:22:35;7.93;;;5.83;;
15130;SDS011;7666;50.920;4.628;2022-10-18T00:25:22;8.87;;;5.47;;
15130;SDS011;7666;50.920;4.628;2022-10-18T00:28:08;5.93;;;5.20;;
15130;SDS011;7666;50.920;4.628;2022-10-18T00:30:54;5.30;;;4.80;;
15130;SDS011;7666;50.920;4.628;2022-10-18T00:33:41;7.47;;;5.40;;
15130;SDS011;7666;50.920;4.628;2022-10-18T00:36:29;5.10;;;4.40;;
15130;SDS011;7666;50.920;4.628;2022-10-18T00:39:18;6.97;;;5.23;;
15130;SDS011;7666;50.920;4.628;2022-10-18T00:42:06;6.47;;;5.33;;
15130;SDS011;7666;50.920;4.628;2022-10-18T00:44:58;7.07;;;6.10;;
15130;SDS011;7666;50.920;4.628;2022-10-18T00:48:05;6.67;;;5.93;;
15130;SDS011;7666;50.920;4.628;2022-10-18T00:50:51;7.10;;;5.83;;
15130;SDS011;7666;50.920;4.628;2022-10-18T00:53:37;7.20;;;5.83;;
15130;SDS011;7666;50.920;4.628;2022-10-18T00:56:24;9.93;;;6.30;;
15130;SDS011;7666;50.920;4.628;2022-10-18T00:59:11;6.90;;;6.20;;
15130;SDS011;7666;50.920;4.628;2022-10-18T01:01:59;8.73;;;5.70;;
15130;SDS011;7666;50.920;4.628;2022-10-18T01:04:46;13.03;;;7.73;;
15130;SDS011;7666;50.920;4.628;2022-10-18T01:10:54;7.03;;;5.73;;
15130;SDS011;7666;50.920;4.628;2022-10-18T01:13:50;10.50;;;5.63;;
15130;SDS011;7666;50.920;4.628;2022-10-18T01:17:00;7.87;;;5.43;;
15130;SDS011;7666;50.920;4.628;2022-10-18T01:32:28;6.43;;;5.50;;
15130;SDS011;7666;50.920;4.628;2022-10-18T01:35:22;6.93;;;5.67;;
15130;SDS011;7666;50.920;4.628;2022-10-18T01:38:13;7.20;;;6.40;;
15130;SDS011;7666;50.920;4.628;2022-10-18T01:41:02;9.23;;;6.27;;
15130;SDS011;7666;50.920;4.628;2022-10-18T01:43:51;6.50;;;5.90;;
15130;SDS011;7666;50.920;4.628;2022-10-18T01:46:43;7.10;;;6.17;;
15130;SDS011;7666;50.920;4.628;2022-10-18T01:49:31;6.90;;;6.03;;
15130;SDS011;7666;50.920;4.628;2022-10-18T01:52:17;6.70;;;6.07;;
15130;SDS011;7666;50.920;4.628;2022-10-18T01:55:03;8.03;;;5.70;;
15130;SDS011;7666;50.920;4.628;2022-10-18T02:00:49;6.07;;;5.57;;
15130;SDS011;7666;50.920;4.628;2022-10-18T02:03:42;6.50;;;5.90;;
15130;SDS011;7666;50.920;4.628;2022-10-18T02:06:34;6.27;;;5.67;;
15130;SDS011;7666;50.920;4.628;2022-10-18T02:09:28;8.17;;;5.90;;
15130;SDS011;7666;50.920;4.628;2022-10-18T02:12:23;6.20;;;5.60;;
15130;SDS011;7666;50.920;4.628;2022-10-18T02:15:13;5.17;;;4.47;;
15130;SDS011;7666;50.920;4.628;2022-10-18T02:18:07;5.30;;;4.80;;
15130;SDS011;7666;50.920;4.628;2022-10-18T02:20:57;4.70;;;4.30;;
15130;SDS011;7666;50.920;4.628;2022-10-18T02:23:46;4.40;;;4.00;;
15130;SDS011;7666;50.920;4.628;2022-10-18T02:26:32;6.40;;;4.77;;
15130;SDS011;7666;50.920;4.628;2022-10-18T02:29:19;5.53;;;4.80;;
15130;SDS011;7666;50.920;4.628;2022-10-18T02:32:08;5.00;;;4.50;;
15130;SDS011;7666;50.920;4.628;2022-10-18T02:35:12;5.67;;;4.87;;
15130;SDS011;7666;50.920;4.628;2022-10-18T02:38:09;6.53;;;5.93;;
15130;SDS011;7666;50.920;4.628;2022-10-18T02:40:58;5.67;;;5.13;;
15130;SDS011;7666;50.920;4.628;2022-10-18T02:43:44;5.50;;;5.00;;
15130;SDS011;7666;50.920;4.628;2022-10-18T02:46:30;5.33;;;4.50;;
15130;SDS011;7666;50.920;4.628;2022-10-18T02:49:17;34.50;;;5.73;;
15130;SDS011;7666;50.920;4.628;2022-10-18T02:52:03;4.67;;;4.27;;
15130;SDS011;7666;50.920;4.628;2022-10-18T02:54:49;5.10;;;4.60;;
15130;SDS011;7666;50.920;4.628;2022-10-18T02:57:36;8.37;;;7.50;;
15130;SDS011;7666;50.920;4.628;2022-10-18T03:00:22;8.50;;;7.70;;
15130;SDS011;7666;50.920;4.628;2022-10-18T03:03:08;15.70;;;6.67;;
15130;SDS011;7666;50.920;4.628;2022-10-18T03:05:53;7.10;;;6.40;;
15130;SDS011;7666;50.920;4.628;2022-10-18T03:08:39;6.93;;;6.27;;
15130;SDS011;7666;50.920;4.628;2022-10-18T03:11:25;7.00;;;5.70;;
15130;SDS011;7666;50.920;4.628;2022-10-18T03:14:11;6.60;;;6.00;;
15130;SDS011;7666;50.920;4.628;2022-10-18T03:16:57;6.37;;;5.70;;
15130;SDS011;7666;50.920;4.628;2022-10-18T03:19:43;5.83;;;5.33;;
15130;SDS011;7666;50.920;4.628;2022-10-18T03:22:29;6.30;;;5.70;;
15130;SDS011;7666;50.920;4.628;2022-10-18T03:25:15;5.83;;;5.00;;
15130;SDS011;7666;50.920;4.628;2022-10-18T03:28:01;7.33;;;5.47;;
15130;SDS011;7666;50.920;4.628;2022-10-18T03:30:47;5.80;;;5.20;;
15130;SDS011;7666;50.920;4.628;2022-10-18T03:33:33;5.77;;;5.23;;
15130;SDS011;7666;50.920;4.628;2022-10-18T03:36:19;6.17;;;5.67;;
15130;SDS011;7666;50.920;4.628;2022-10-18T03:39:05;6.03;;;5.43;;
15130;SDS011;7666;50.920;4.628;2022-10-18T03:41:51;6.00;;;5.40;;
15130;SDS011;7666;50.920;4.628;2022-10-18T03:44:37;6.37;;;5.87;;
15130;SDS011;7666;50.920;4.628;2022-10-18T03:47:23;12.67;;;5.77;;
15130;SDS011;7666;50.920;4.628;2022-10-18T03:50:09;6.57;;;5.97;;
15130;SDS011;7666;50.920;4.628;2022-10-18T03:52:55;9.13;;;6.53;;
15130;SDS011;7666;50.920;4.628;2022-10-18T03:55:41;6.83;;;6.33;;
15130;SDS011;7666;50.920;4.628;2022-10-18T03:58:27;6.60;;;6.00;;
15130;SDS011;7666;50.920;4.628;2022-10-18T04:01:13;7.23;;;6.53;;
15130;SDS011;7666;50.920;4.628;2022-10-18T04:03:59;7.37;;;6.40;;
15130;SDS011;7666;50.920;4.628;2022-10-18T04:06:44;6.90;;;6.20;;
15130;SDS011;7666;50.920;4.628;2022-10-18T04:09:30;6.03;;;5.53;;
15130;SDS011;7666;50.920;4.628;2022-10-18T04:12:16;7.80;;;4.90;;
15130;SDS011;7666;50.920;4.628;2022-10-18T04:15:02;11.73;;;5.03;;
15130;SDS011;7666;50.920;4.628;2022-10-18T04:17:49;5.80;;;4.77;;
15130;SDS011;7666;50.920;4.628;2022-10-18T04:20:35;8.83;;;5.10;;
15130;SDS011;7666;50.920;4.628;2022-10-18T04:23:20;5.37;;;4.67;;
15130;SDS011;7666;50.920;4.628;2022-10-18T04:26:06;7.50;;;5.30;;
15130;SDS011;7666;50.920;4.628;2022-10-18T04:28:53;6.43;;;5.83;;
15130;SDS011;7666;50.920;4.628;2022-10-18T04:31:39;8.17;;;6.00;;
15130;SDS011;7666;50.920;4.628;2022-10-18T04:34:24;6.10;;;5.50;;
15130;SDS011;7666;50.920;4.628;2022-10-18T04:37:11;10.40;;;5.13;;
15130;SDS011;7666;50.920;4.628;2022-10-18T04:39:57;9.33;;;5.63;;
15130;SDS011;7666;50.920;4.628;2022-10-18T04:42:42;6.10;;;5.50;;
15130;SDS011;7666;50.920;4.628;2022-10-18T04:45:28;10.37;;;5.77;;
15130;SDS011;7666;50.920;4.628;2022-10-18T04:48:14;7.20;;;5.80;;
15130;SDS011;7666;50.920;4.628;2022-10-18T04:51:01;7.13;;;5.70;;
15130;SDS011;7666;50.920;4.628;2022-10-18T04:53:46;8.40;;;5.80;;
15130;SDS011;7666;50.920;4.628;2022-10-18T04:56:32;7.93;;;7.20;;
15130;SDS011;7666;50.920;4.628;2022-10-18T04:59:18;10.27;;;7.07;;
15130;SDS011;7666;50.920;4.628;2022-10-18T05:02:04;6.40;;;5.00;;
15130;SDS011;7666;50.920;4.628;2022-10-18T05:04:50;7.23;;;5.30;;
15130;SDS011;7666;50.920;4.628;2022-10-18T05:07:36;6.77;;;6.10;;
15130;SDS011;7666;50.920;4.628;2022-10-18T05:10:22;8.07;;;5.27;;
15130;SDS011;7666;50.920;4.628;2022-10-18T05:13:08;6.27;;;5.40;;
15130;SDS011;7666;50.920;4.628;2022-10-18T05:15:54;5.50;;;5.00;;
15130;SDS011;7666;50.920;4.628;2022-10-18T05:18:40;5.30;;;4.80;;
15130;SDS011;7666;50.920;4.628;2022-10-18T05:21:27;6.00;;;5.40;;
15130;SDS011;7666;50.920;4.628;2022-10-18T05:24:13;7.43;;;5.43;;
15130;SDS011;7666;50.920;4.628;2022-10-18T05:26:59;13.30;;;6.33;;
15130;SDS011;7666;50.920;4.628;2022-10-18T05:29:45;6.50;;;5.83;;
15130;SDS011;7666;50.920;4.628;2022-10-18T05:32:31;6.60;;;5.77;;
15130;SDS011;7666;50.920;4.628;2022-10-18T05:35:17;7.43;;;5.97;;
15130;SDS011;7666;50.920;4.628;2022-10-18T05:38:05;6.77;;;6.00;;
15130;SDS011;7666;50.920;4.628;2022-10-18T05:40:51;5.57;;;5.00;;
15130;SDS011;7666;50.920;4.628;2022-10-18T05:43:38;7.13;;;5.73;;
15130;SDS011;7666;50.920;4.628;2022-10-18T05:46:24;6.57;;;5.67;;
15130;SDS011;7666;50.920;4.628;2022-10-18T05:49:11;7.17;;;6.33;;
15130;SDS011;7666;50.920;4.628;2022-10-18T05:51:57;8.60;;;7.77;;
15130;SDS011;7666;50.920;4.628;2022-10-18T05:54:43;8.73;;;7.40;;
15130;SDS011;7666;50.920;4.628;2022-10-18T05:57:29;11.90;;;7.90;;
15130;SDS011;7666;50.920;4.628;2022-10-18T06:00:15;8.27;;;7.37;;
15130;SDS011;7666;50.920;4.628;2022-10-18T06:03:02;10.70;;;7.53;;
15130;SDS011;7666;50.920;4.628;2022-10-18T06:05:48;7.40;;;6.70;;
15130;SDS011;7666;50.920;4.628;2022-10-18T06:08:34;13.27;;;7.63;;
15130;SDS011;7666;50.920;4.628;2022-10-18T06:11:21;8.83;;;7.17;;
15130;SDS011;7666;50.920;4.628;2022-10-18T06:14:07;11.30;;;7.60;;
15130;SDS011;7666;50.920;4.628;2022-10-18T06:16:54;8.40;;;7.47;;
15130;SDS011;7666;50.920;4.628;2022-10-18T06:19:41;11.13;;;8.63;;
15130;SDS011;7666;50.920;4.628;2022-10-18T06:22:28;9.87;;;8.40;;
15130;SDS011;7666;50.920;4.628;2022-10-18T06:25:14;8.27;;;7.47;;
15130;SDS011;7666;50.920;4.628;2022-10-18T06:28:02;9.47;;;7.80;;
15130;SDS011;7666;50.920;4.628;2022-10-18T06:30:48;9.93;;;7.83;;
15130;SDS011;7666;50.920;4.628;2022-10-18T06:33:35;8.53;;;7.63;;
15130;SDS011;7666;50.920;4.628;2022-10-18T06:36:23;9.47;;;7.87;;
15130;SDS011;7666;50.920;4.628;2022-10-18T06:39:09;8.30;;;6.33;;
15130;SDS011;7666;50.920;4.628;2022-10-18T06:41:55;11.73;;;7.83;;
15130;SDS011;7666;50.920;4.628;2022-10-18T06:44:41;8.77;;;7.57;;
15130;SDS011;7666;50.920;4.628;2022-10-18T06:47:27;7.23;;;6.53;;
15130;SDS011;7666;50.920;4.628;2022-10-18T06:50:13;7.67;;;6.97;;
15130;SDS011;7666;50.920;4.628;2022-10-18T06:52:59;7.93;;;6.27;;
15130;SDS011;7666;50.920;4.628;2022-10-18T06:55:46;7.93;;;6.57;;
15130;SDS011;7666;50.920;4.628;2022-10-18T06:58:33;11.07;;;7.50;;
15130;SDS011;7666;50.920;4.628;2022-10-18T07:01:19;16.53;;;8.07;;
15130;SDS011;7666;50.920;4.628;2022-10-18T07:04:06;11.63;;;8.03;;
15130;SDS011;7666;50.920;4.628;2022-10-18T07:06:52;10.23;;;7.40;;
15130;SDS011;7666;50.920;4.628;2022-10-18T07:09:38;9.07;;;7.77;;
15130;SDS011;7666;50.920;4.628;2022-10-18T07:12:24;10.17;;;8.23;;
15130;SDS011;7666;50.920;4.628;2022-10-18T07:15:10;8.73;;;7.20;;
15130;SDS011;7666;50.920;4.628;2022-10-18T07:17:56;10.33;;;7.20;;
15130;SDS011;7666;50.920;4.628;2022-10-18T07:20:42;8.70;;;7.13;;
15130;SDS011;7666;50.920;4.628;2022-10-18T07:23:28;8.23;;;7.07;;
15130;SDS011;7666;50.920;4.628;2022-10-18T07:29:08;8.80;;;7.73;;
15130;SDS011;7666;50.920;4.628;2022-10-18T07:31:56;8.57;;;6.80;;
15130;SDS011;7666;50.920;4.628;2022-10-18T07:34:42;7.53;;;6.73;;
15130;SDS011;7666;50.920;4.628;2022-10-18T07:37:28;7.20;;;6.47;;
15130;SDS011;7666;50.920;4.628;2022-10-18T07:40:14;16.93;;;5.77;;
15130;SDS011;7666;50.920;4.628;2022-10-18T07:43:00;5.17;;;4.03;;
15130;SDS011;7666;50.920;4.628;2022-10-18T07:45:53;25.40;;;5.60;;
15130;SDS011;7666;50.920;4.628;2022-10-18T07:48:40;35.03;;;7.67;;
15130;SDS011;7666;50.920;4.628;2022-10-18T07:51:26;21.67;;;5.67;;
15130;SDS011;7666;50.920;4.628;2022-10-18T07:54:12;8.67;;;6.80;;
15130;SDS011;7666;50.920;4.628;2022-10-18T07:56:58;7.73;;;6.80;;
15130;SDS011;7666;50.920;4.628;2022-10-18T07:59:44;8.93;;;6.40;;
15130;SDS011;7666;50.920;4.628;2022-10-18T08:02:32;7.20;;;6.03;;
15130;SDS011;7666;50.920;4.628;2022-10-18T08:05:18;8.27;;;6.33;;
15130;SDS011;7666;50.920;4.628;2022-10-18T08:08:04;12.87;;;7.50;;
15130;SDS011;7666;50.920;4.628;2022-10-18T08:10:50;14.27;;;7.23;;
15130;SDS011;7666;50.920;4.628;2022-10-18T08:13:36;9.53;;;6.80;;
15130;SDS011;7666;50.920;4.628;2022-10-18T08:16:24;11.77;;;7.80;;
15130;SDS011;7666;50.920;4.628;2022-10-18T08:19:11;10.03;;;7.57;;
15130;SDS011;7666;50.920;4.628;2022-10-18T08:21:57;13.70;;;7.90;;
15130;SDS011;7666;50.920;4.628;2022-10-18T08:24:43;11.17;;;7.53;;
15130;SDS011;7666;50.920;4.628;2022-10-18T08:27:29;9.77;;;7.67;;
15130;SDS011;7666;50.920;4.628;2022-10-18T08:30:15;16.03;;;8.87;;
15130;SDS011;7666;50.920;4.628;2022-10-18T08:33:02;13.70;;;8.40;;
15130;SDS011;7666;50.920;4.628;2022-10-18T08:35:57;14.07;;;7.83;;
15130;SDS011;7666;50.920;4.628;2022-10-18T08:38:45;14.17;;;8.63;;
15130;SDS011;7666;50.920;4.628;2022-10-18T08:44:43;14.27;;;8.60;;
15130;SDS011;7666;50.920;4.628;2022-10-18T08:47:34;17.60;;;8.40;;
15130;SDS011;7666;50.920;4.628;2022-10-18T08:50:28;14.10;;;7.97;;
15130;SDS011;7666;50.920;4.628;2022-10-18T08:53:22;17.47;;;8.20;;
15130;SDS011;7666;50.920;4.628;2022-10-18T08:56:13;16.10;;;8.07;;
15130;SDS011;7666;50.920;4.628;2022-10-18T08:59:00;21.43;;;8.50;;
15130;SDS011;7666;50.920;4.628;2022-10-18T09:01:53;13.07;;;8.23;;
15130;SDS011;7666;50.920;4.628;2022-10-18T09:04:54;13.97;;;8.07;;
15130;SDS011;7666;50.920;4.628;2022-10-18T09:08:02;12.47;;;6.73;;
15130;SDS011;7666;50.920;4.628;2022-10-18T09:11:04;15.83;;;6.90;;
15130;SDS011;7666;50.920;4.628;2022-10-18T09:17:11;16.60;;;7.70;;
15130;SDS011;7666;50.920;4.628;2022-10-18T09:20:23;13.60;;;7.37;;
15130;SDS011;7666;50.920;4.628;2022-10-18T09:23:20;16.37;;;7.80;;
15130;SDS011;7666;50.920;4.628;2022-10-18T09:26:18;17.37;;;7.63;;
15130;SDS011;7666;50.920;4.628;2022-10-18T09:32:13;17.80;;;7.40;;
15130;SDS011;7666;50.920;4.628;2022-10-18T09:35:27;14.23;;;6.60;;
15130;SDS011;7666;50.920;4.628;2022-10-18T09:38:18;15.53;;;6.20;;
15130;SDS011;7666;50.920;4.628;2022-10-18T09:41:15;20.20;;;6.90;;
15130;SDS011;7666;50.920;4.628;2022-10-18T09:47:15;13.50;;;6.70;;
15130;SDS011;7666;50.920;4.628;2022-10-18T09:50:17;16.63;;;6.73;;
15130;SDS011;7666;50.920;4.628;2022-10-18T09:56:18;14.10;;;5.77;;
15130;SDS011;7666;50.920;4.628;2022-10-18T10:02:15;18.00;;;7.30;;
15130;SDS011;7666;50.920;4.628;2022-10-18T10:05:11;16.80;;;6.60;;
15130;SDS011;7666;50.920;4.628;2022-10-18T10:07:58;16.97;;;6.60;;
15130;SDS011;7666;50.920;4.628;2022-10-18T10:10:46;17.93;;;7.03;;
15130;SDS011;7666;50.920;4.628;2022-10-18T10:13:32;17.53;;;6.17;;
15130;SDS011;7666;50.920;4.628;2022-10-18T10:16:18;17.93;;;6.57;;
15130;SDS011;7666;50.920;4.628;2022-10-18T10:19:04;19.47;;;5.87;;
15130;SDS011;7666;50.920;4.628;2022-10-18T10:21:51;19.43;;;5.30;;
15130;SDS011;7666;50.920;4.628;2022-10-18T10:27:36;13.93;;;4.53;;
15130;SDS011;7666;50.920;4.628;2022-10-18T10:30:30;14.33;;;4.30;;
15130;SDS011;7666;50.920;4.628;2022-10-18T10:33:35;16.40;;;3.97;;
15130;SDS011;7666;50.920;4.628;2022-10-18T10:36:22;15.73;;;4.27;;
15130;SDS011;7666;50.920;4.628;2022-10-18T10:39:15;13.43;;;3.70;;
15130;SDS011;7666;50.920;4.628;2022-10-18T10:42:03;13.53;;;4.00;;
15130;SDS011;7666;50.920;4.628;2022-10-18T10:44:51;9.77;;;3.30;;
15130;SDS011;7666;50.920;4.628;2022-10-18T10:47:39;13.80;;;3.03;;
15130;SDS011;7666;50.920;4.628;2022-10-18T10:50:25;13.77;;;3.47;;
15130;SDS011;7666;50.920;4.628;2022-10-18T10:56:31;7.43;;;2.70;;
15130;SDS011;7666;50.920;4.628;2022-10-18T10:59:20;7.17;;;2.17;;
15130;SDS011;7666;50.920;4.628;2022-10-18T11:08:07;10.97;;;2.70;;
15130;SDS011;7666;50.920;4.628;2022-10-18T11:11:12;9.90;;;2.33;;
15130;SDS011;7666;50.920;4.628;2022-10-18T11:14:17;14.83;;;3.33;;
15130;SDS011;7666;50.920;4.628;2022-10-18T11:20:15;9.70;;;3.10;;
15130;SDS011;7666;50.920;4.628;2022-10-18T11:23:12;11.17;;;3.17;;
15130;SDS011;7666;50.920;4.628;2022-10-18T11:32:12;13.77;;;3.00;;
15130;SDS011;7666;50.920;4.628;2022-10-18T11:35:13;13.97;;;3.50;;
15130;SDS011;7666;50.920;4.628;2022-10-18T11:38:22;11.17;;;3.30;;
15130;SDS011;7666;50.920;4.628;2022-10-18T11:44:26;10.73;;;3.10;;
15130;SDS011;7666;50.920;4.628;2022-10-18T11:50:47;14.37;;;3.00;;
15130;SDS011;7666;50.920;4.628;2022-10-18T11:56:49;10.30;;;2.77;;
15130;SDS011;7666;50.920;4.628;2022-10-18T12:05:56;8.00;;;2.50;;
15130;SDS011;7666;50.920;4.628;2022-10-18T12:08:49;8.53;;;2.30;;
15130;SDS011;7666;50.920;4.628;2022-10-18T12:11:43;8.30;;;2.47;;
15130;SDS011;7666;50.920;4.628;2022-10-18T12:14:35;7.17;;;2.20;;
15130;SDS011;7666;50.920;4.628;2022-10-18T12:17:44;8.33;;;2.20;;
15130;SDS011;7666;50.920;4.628;2022-10-18T12:20:32;13.13;;;2.83;;
15130;SDS011;7666;50.920;4.628;2022-10-18T12:26:14;9.47;;;2.50;;
15130;SDS011;7666;50.920;4.628;2022-10-18T12:29:13;10.43;;;2.47;;
15130;SDS011;7666;50.920;4.628;2022-10-18T12:32:15;9.53;;;2.30;;
15130;SDS011;7666;50.920;4.628;2022-10-18T12:35:09;6.80;;;2.00;;
15130;SDS011;7666;50.920;4.628;2022-10-18T12:41:04;12.47;;;2.50;;
15130;SDS011;7666;50.920;4.628;2022-10-18T12:43:54;10.00;;;2.37;;
15130;SDS011;7666;50.920;4.628;2022-10-18T12:46:49;6.37;;;1.70;;
15130;SDS011;7666;50.920;4.628;2022-10-18T12:49:38;8.73;;;2.33;;
15130;SDS011;7666;50.920;4.628;2022-10-18T12:52:24;10.30;;;2.10;;
15130;SDS011;7666;50.920;4.628;2022-10-18T13:01:01;9.23;;;2.03;;
15130;SDS011;7666;50.920;4.628;2022-10-18T13:03:52;7.80;;;1.90;;
15130;SDS011;7666;50.920;4.628;2022-10-18T13:13:06;9.13;;;2.07;;
15130;SDS011;7666;50.920;4.628;2022-10-18T13:22:36;10.77;;;2.37;;
15130;SDS011;7666;50.920;4.628;2022-10-18T13:25:45;9.70;;;2.47;;
15130;SDS011;7666;50.920;4.628;2022-10-18T13:28:44;8.80;;;2.10;;
15130;SDS011;7666;50.920;4.628;2022-10-18T13:34:41;9.27;;;2.20;;
15130;SDS011;7666;50.920;4.628;2022-10-18T13:37:27;11.47;;;2.47;;
15130;SDS011;7666;50.920;4.628;2022-10-18T13:40:21;10.70;;;1.93;;
15130;SDS011;7666;50.920;4.628;2022-10-18T13:43:56;9.93;;;2.10;;
15130;SDS011;7666;50.920;4.628;2022-10-18T13:49:38;5.83;;;1.87;;
15130;SDS011;7666;50.920;4.628;2022-10-18T14:07:45;12.33;;;2.33;;
15130;SDS011;7666;50.920;4.628;2022-10-18T14:10:37;10.07;;;1.87;;
15130;SDS011;7666;50.920;4.628;2022-10-18T14:13:33;6.07;;;1.70;;
15130;SDS011;7666;50.920;4.628;2022-10-18T14:16:47;9.47;;;2.20;;
15130;SDS011;7666;50.920;4.628;2022-10-18T14:19:46;8.37;;;1.77;;
15130;SDS011;7666;50.920;4.628;2022-10-18T14:26:12;8.20;;;2.20;;
15130;SDS011;7666;50.920;4.628;2022-10-18T14:29:05;10.77;;;2.40;;
15130;SDS011;7666;50.920;4.628;2022-10-18T14:32:00;9.43;;;2.23;;
15130;SDS011;7666;50.920;4.628;2022-10-18T14:34:46;6.73;;;1.90;;
15130;SDS011;7666;50.920;4.628;2022-10-18T14:37:33;10.73;;;2.50;;
15130;SDS011;7666;50.920;4.628;2022-10-18T14:40:34;8.83;;;1.83;;
15130;SDS011;7666;50.920;4.628;2022-10-18T14:43:24;8.57;;;1.93;;
15130;SDS011;7666;50.920;4.628;2022-10-18T14:46:15;9.60;;;1.97;;
15130;SDS011;7666;50.920;4.628;2022-10-18T14:49:03;9.40;;;2.00;;
15130;SDS011;7666;50.920;4.628;2022-10-18T14:51:50;7.17;;;1.90;;
15130;SDS011;7666;50.920;4.628;2022-10-18T14:54:37;8.13;;;2.13;;
15130;SDS011;7666;50.920;4.628;2022-10-18T14:57:26;10.07;;;2.00;;
15130;SDS011;7666;50.920;4.628;2022-10-18T15:00:25;6.57;;;2.00;;
15130;SDS011;7666;50.920;4.628;2022-10-18T15:03:18;7.27;;;1.93;;
15130;SDS011;7666;50.920;4.628;2022-10-18T15:06:04;8.27;;;2.07;;
15130;SDS011;7666;50.920;4.628;2022-10-18T15:08:56;11.40;;;2.40;;
15130;SDS011;7666;50.920;4.628;2022-10-18T15:11:43;10.23;;;2.40;;
15130;SDS011;7666;50.920;4.628;2022-10-18T15:14:29;7.23;;;2.63;;
15130;SDS011;7666;50.920;4.628;2022-10-18T15:17:21;7.80;;;2.07;;
15130;SDS011;7666;50.920;4.628;2022-10-18T15:23:26;10.63;;;2.77;;
15130;SDS011;7666;50.920;4.628;2022-10-18T15:26:23;9.70;;;2.60;;
15130;SDS011;7666;50.920;4.628;2022-10-18T15:29:15;11.53;;;2.67;;
15130;SDS011;7666;50.920;4.628;2022-10-18T15:32:06;8.80;;;2.70;;
15130;SDS011;7666;50.920;4.628;2022-10-18T15:35:07;11.23;;;2.80;;
15130;SDS011;7666;50.920;4.628;2022-10-18T15:38:46;11.80;;;2.83;;
15130;SDS011;7666;50.920;4.628;2022-10-18T15:49:57;9.27;;;2.30;;
15130;SDS011;7666;50.920;4.628;2022-10-18T15:52:43;8.33;;;2.10;;
15130;SDS011;7666;50.920;4.628;2022-10-18T15:58:20;9.43;;;2.37;;
15130;SDS011;7666;50.920;4.628;2022-10-18T16:04:27;8.67;;;2.03;;
15130;SDS011;7666;50.920;4.628;2022-10-18T16:07:17;7.87;;;1.97;;
15130;SDS011;7666;50.920;4.628;2022-10-18T16:10:10;8.50;;;2.20;;
15130;SDS011;7666;50.920;4.628;2022-10-18T16:12:57;8.33;;;2.27;;
15130;SDS011;7666;50.920;4.628;2022-10-18T16:15:43;6.73;;;2.00;;
15130;SDS011;7666;50.920;4.628;2022-10-18T16:18:29;10.37;;;2.27;;
15130;SDS011;7666;50.920;4.628;2022-10-18T16:21:19;10.13;;;2.23;;
15130;SDS011;7666;50.920;4.628;2022-10-18T16:24:11;10.73;;;2.47;;
15130;SDS011;7666;50.920;4.628;2022-10-18T16:26:57;10.03;;;2.37;;
15130;SDS011;7666;50.920;4.628;2022-10-18T16:29:42;7.27;;;1.97;;
15130;SDS011;7666;50.920;4.628;2022-10-18T16:32:28;6.47;;;2.10;;
15130;SDS011;7666;50.920;4.628;2022-10-18T16:35:14;9.87;;;2.17;;
15130;SDS011;7666;50.920;4.628;2022-10-18T16:38:00;7.73;;;2.10;;
15130;SDS011;7666;50.920;4.628;2022-10-18T16:40:46;7.60;;;1.87;;
15130;SDS011;7666;50.920;4.628;2022-10-18T16:43:33;7.60;;;1.87;;
15130;SDS011;7666;50.920;4.628;2022-10-18T16:46:23;9.30;;;2.93;;
15130;SDS011;7666;50.920;4.628;2022-10-18T16:49:22;8.83;;;2.37;;
15130;SDS011;7666;50.920;4.628;2022-10-18T16:52:09;8.67;;;2.57;;
15130;SDS011;7666;50.920;4.628;2022-10-18T16:54:55;6.87;;;2.23;;
15130;SDS011;7666;50.920;4.628;2022-10-18T16:57:41;11.27;;;2.10;;
15130;SDS011;7666;50.920;4.628;2022-10-18T17:00:27;5.90;;;1.90;;
15130;SDS011;7666;50.920;4.628;2022-10-18T17:03:14;6.70;;;1.70;;
15130;SDS011;7666;50.920;4.628;2022-10-18T17:06:00;7.90;;;1.77;;
15130;SDS011;7666;50.920;4.628;2022-10-18T17:08:46;13.50;;;3.03;;
15130;SDS011;7666;50.920;4.628;2022-10-18T17:11:33;8.43;;;3.03;;
15130;SDS011;7666;50.920;4.628;2022-10-18T17:14:18;7.93;;;2.00;;
15130;SDS011;7666;50.920;4.628;2022-10-18T17:17:04;8.07;;;1.83;;
15130;SDS011;7666;50.920;4.628;2022-10-18T17:19:54;4.97;;;1.77;;
15130;SDS011;7666;50.920;4.628;2022-10-18T17:22:40;5.90;;;1.80;;
15130;SDS011;7666;50.920;4.628;2022-10-18T17:25:26;9.80;;;2.90;;
15130;SDS011;7666;50.920;4.628;2022-10-18T17:28:13;8.57;;;2.10;;
15130;SDS011;7666;50.920;4.628;2022-10-18T17:31:00;8.63;;;2.10;;
15130;SDS011;7666;50.920;4.628;2022-10-18T17:33:46;11.57;;;2.13;;
15130;SDS011;7666;50.920;4.628;2022-10-18T17:36:32;6.33;;;1.80;;
15130;SDS011;7666;50.920;4.628;2022-10-18T17:39:18;10.07;;;2.30;;
15130;SDS011;7666;50.920;4.628;2022-10-18T17:42:04;8.63;;;1.97;;
15130;SDS011;7666;50.920;4.628;2022-10-18T17:44:50;4.70;;;1.80;;
15130;SDS011;7666;50.920;4.628;2022-10-18T17:47:36;8.17;;;1.70;;
15130;SDS011;7666;50.920;4.628;2022-10-18T17:50:22;8.80;;;2.20;;
15130;SDS011;7666;50.920;4.628;2022-10-18T17:53:08;8.33;;;2.17;;
15130;SDS011;7666;50.920;4.628;2022-10-18T17:55:57;10.07;;;2.80;;
15130;SDS011;7666;50.920;4.628;2022-10-18T17:58:43;7.03;;;2.23;;
15130;SDS011;7666;50.920;4.628;2022-10-18T18:01:31;12.17;;;2.30;;
15130;SDS011;7666;50.920;4.628;2022-10-18T18:04:17;7.77;;;2.43;;
15130;SDS011;7666;50.920;4.628;2022-10-18T18:07:02;7.13;;;2.33;;
15130;SDS011;7666;50.920;4.628;2022-10-18T18:09:48;10.63;;;2.27;;
15130;SDS011;7666;50.920;4.628;2022-10-18T18:12:34;7.13;;;2.03;;
15130;SDS011;7666;50.920;4.628;2022-10-18T18:15:20;7.43;;;2.33;;
15130;SDS011;7666;50.920;4.628;2022-10-18T18:18:06;8.90;;;2.67;;
15130;SDS011;7666;50.920;4.628;2022-10-18T18:20:52;8.50;;;2.73;;
15130;SDS011;7666;50.920;4.628;2022-10-18T18:23:38;7.70;;;2.37;;
15130;SDS011;7666;50.920;4.628;2022-10-18T18:26:25;4.93;;;2.10;;
15130;SDS011;7666;50.920;4.628;2022-10-18T18:29:11;8.23;;;1.80;;
15130;SDS011;7666;50.920;4.628;2022-10-18T18:31:57;10.33;;;2.50;;
15130;SDS011;7666;50.920;4.628;2022-10-18T18:34:44;9.80;;;2.53;;
15130;SDS011;7666;50.920;4.628;2022-10-18T18:37:30;9.13;;;3.20;;
15130;SDS011;7666;50.920;4.628;2022-10-18T18:40:16;5.93;;;2.83;;
15130;SDS011;7666;50.920;4.628;2022-10-18T18:43:01;8.80;;;2.70;;
15130;SDS011;7666;50.920;4.628;2022-10-18T18:45:50;9.37;;;2.80;;
15130;SDS011;7666;50.920;4.628;2022-10-18T18:48:37;8.63;;;2.80;;
15130;SDS011;7666;50.920;4.628;2022-10-18T18:51:23;8.30;;;2.60;;
15130;SDS011;7666;50.920;4.628;2022-10-18T18:54:10;13.70;;;3.03;;
15130;SDS011;7666;50.920;4.628;2022-10-18T18:56:57;8.20;;;2.63;;
15130;SDS011;7666;50.920;4.628;2022-10-18T18:59:43;7.93;;;2.50;;
15130;SDS011;7666;50.920;4.628;2022-10-18T19:02:29;10.80;;;2.73;;
15130;SDS011;7666;50.920;4.628;2022-10-18T19:05:15;7.33;;;1.93;;
15130;SDS011;7666;50.920;4.628;2022-10-18T19:08:02;10.50;;;2.30;;
15130;SDS011;7666;50.920;4.628;2022-10-18T19:10:48;7.00;;;2.07;;
15130;SDS011;7666;50.920;4.628;2022-10-18T19:13:34;14.83;;;2.83;;
15130;SDS011;7666;50.920;4.628;2022-10-18T19:16:28;13.17;;;3.20;;
15130;SDS011;7666;50.920;4.628;2022-10-18T19:19:21;10.90;;;3.00;;
15130;SDS011;7666;50.920;4.628;2022-10-18T19:22:08;5.23;;;2.40;;
15130;SDS011;7666;50.920;4.628;2022-10-18T19:24:55;7.47;;;2.20;;
15130;SDS011;7666;50.920;4.628;2022-10-18T19:27:41;9.50;;;2.40;;
15130;SDS011;7666;50.920;4.628;2022-10-18T19:30:27;10.47;;;2.67;;
15130;SDS011;7666;50.920;4.628;2022-10-18T19:33:13;8.37;;;2.30;;
15130;SDS011;7666;50.920;4.628;2022-10-18T19:35:59;11.20;;;3.30;;